sensor_id;sensor_type;location;lat;lon;timestamp;pressure;altitude;pressure_sealevel;temperature;humidity
74346;BME280;62776;50.518;6.732;2022-11-06T00:02:26;96617.22;;;7.13;100.00
74346;BME280;62776;50.518;6.732;2022-11-06T00:05:12;96610.34;;;7.14;100.00
74346;BME280;62776;50.518;6.732;2022-11-06T00:08:26;96607.66;;;6.99;100.00
74346;BME280;62776;50.518;6.732;2022-11-06T00:11:15;96610.28;;;7.05;100.00
74346;BME280;62776;50.518;6.732;2022-11-06T00:14:02;96613.72;;;7.07;100.00
74346;BME280;62776;50.518;6.732;2022-11-06T00:16:48;96618.06;;;7.08;100.00
74346;BME280;62776;50.518;6.732;2022-11-06T00:19:34;96607.72;;;7.08;100.00
74346;BME280;62776;50.518;6.732;2022-11-06T00:22:20;96603.41;;;7.07;100.00
74346;BME280;62776;50.518;6.732;2022-11-06T00:25:06;96611.16;;;7.05;100.00
74346;BME280;62776;50.518;6.732;2022-11-06T00:27:53;96604.25;;;7.04;100.00
74346;BME280;62776;50.518;6.732;2022-11-06T00:30:39;96613.72;;;7.04;100.00
74346;BME280;62776;50.518;6.732;2022-11-06T00:33:25;96606.84;;;7.03;100.00
74346;BME280;62776;50.518;6.732;2022-11-06T00:36:13;96610.25;;;7.00;100.00
74346;BME280;62776;50.518;6.732;2022-11-06T00:39:00;96615.44;;;7.02;100.00
74346;BME280;62776;50.518;6.732;2022-11-06T00:41:46;96614.59;;;7.04;100.00
74346;BME280;62776;50.518;6.732;2022-11-06T00:44:32;96616.31;;;7.05;100.00
74346;BME280;62776;50.518;6.732;2022-11-06T00:47:18;96611.13;;;7.02;100.00
74346;BME280;62776;50.518;6.732;2022-11-06T00:50:05;96619.75;;;7.00;100.00
74346;BME280;62776;50.518;6.732;2022-11-06T00:52:51;96614.56;;;7.00;100.00
74346;BME280;62776;50.518;6.732;2022-11-06T00:55:37;96611.13;;;7.01;100.00
74346;BME280;62776;50.518;6.732;2022-11-06T00:58:23;96620.59;;;7.02;100.00
74346;BME280;62776;50.518;6.732;2022-11-06T01:01:15;96624.88;;;6.95;100.00
74346;BME280;62776;50.518;6.732;2022-11-06T01:04:08;96615.41;;;6.96;100.00
74346;BME280;62776;50.518;6.732;2022-11-06T01:06:55;96613.69;;;6.98;100.00
74346;BME280;62776;50.518;6.732;2022-11-06T01:09:41;96611.97;;;6.97;100.00
74346;BME280;62776;50.518;6.732;2022-11-06T01:12:30;96618.84;;;6.92;100.00
74346;BME280;62776;50.518;6.732;2022-11-06T01:15:17;96615.38;;;6.93;100.00
74346;BME280;62776;50.518;6.732;2022-11-06T01:18:03;96607.66;;;6.96;100.00
74346;BME280;62776;50.518;6.732;2022-11-06T01:20:49;96611.94;;;6.95;100.00
74346;BME280;62776;50.518;6.732;2022-11-06T01:23:35;96592.16;;;6.94;100.00
74346;BME280;62776;50.518;6.732;2022-11-06T01:26:22;96592.16;;;6.94;100.00
74346;BME280;62776;50.518;6.732;2022-11-06T01:29:12;96589.56;;;6.93;100.00
74346;BME280;62776;50.518;6.732;2022-11-06T01:31:58;96583.56;;;6.97;100.00
74346;BME280;62776;50.518;6.732;2022-11-06T01:34:44;96582.69;;;6.95;100.00
74346;BME280;62776;50.518;6.732;2022-11-06T01:37:31;96587.00;;;6.94;100.00
74346;BME280;62776;50.518;6.732;2022-11-06T01:40:17;96585.25;;;6.92;100.00
74346;BME280;62776;50.518;6.732;2022-11-06T01:43:04;96592.13;;;6.93;100.00
74346;BME280;62776;50.518;6.732;2022-11-06T01:45:52;96578.38;;;6.89;100.00
74346;BME280;62776;50.518;6.732;2022-11-06T01:48:41;96582.69;;;6.92;100.00
74346;BME280;62776;50.518;6.732;2022-11-06T01:51:30;96584.38;;;6.91;100.00
74346;BME280;62776;50.518;6.732;2022-11-06T01:54:17;96590.41;;;6.93;100.00
74346;BME280;62776;50.518;6.732;2022-11-06T01:57:05;96579.22;;;6.96;100.00
74346;BME280;62776;50.518;6.732;2022-11-06T01:59:52;96578.38;;;6.97;100.00
74346;BME280;62776;50.518;6.732;2022-11-06T02:02:40;96574.06;;;6.99;100.00
74346;BME280;62776;50.518;6.732;2022-11-06T02:05:26;96571.50;;;7.02;100.00
74346;BME280;62776;50.518;6.732;2022-11-06T02:08:14;96572.38;;;7.04;100.00
74346;BME280;62776;50.518;6.732;2022-11-06T02:11:01;96577.56;;;7.07;100.00
74346;BME280;62776;50.518;6.732;2022-11-06T02:13:51;96566.38;;;7.11;100.00
74346;BME280;62776;50.518;6.732;2022-11-06T02:16:45;96556.88;;;7.11;100.00
74346;BME280;62776;50.518;6.732;2022-11-06T02:29:21;96522.44;;;7.08;100.00
74346;BME280;62776;50.518;6.732;2022-11-06T02:32:18;96514.66;;;7.05;100.00
74346;BME280;62776;50.518;6.732;2022-11-06T02:35:22;96520.66;;;7.01;100.00
74346;BME280;62776;50.518;6.732;2022-11-06T02:38:21;96523.28;;;7.14;100.00
74346;BME280;62776;50.518;6.732;2022-11-06T02:41:20;96530.19;;;7.17;100.00
74346;BME280;62776;50.518;6.732;2022-11-06T02:44:10;96518.16;;;7.27;100.00
74346;BME280;62776;50.518;6.732;2022-11-06T02:47:04;96522.47;;;7.32;100.00
74346;BME280;62776;50.518;6.732;2022-11-06T02:50:01;96517.28;;;7.34;100.00
74346;BME280;62776;50.518;6.732;2022-11-06T02:52:54;96515.59;;;7.43;100.00
74346;BME280;62776;50.518;6.732;2022-11-06T02:55:47;96519.91;;;7.46;100.00
74346;BME280;62776;50.518;6.732;2022-11-06T02:58:50;96515.63;;;7.49;100.00
74346;BME280;62776;50.518;6.732;2022-11-06T03:01:51;96506.97;;;7.47;100.00
74346;BME280;62776;50.518;6.732;2022-11-06T03:04:59;96488.03;;;7.54;100.00
74346;BME280;62776;50.518;6.732;2022-11-06T03:17:17;96475.09;;;7.57;100.00
74346;BME280;62776;50.518;6.732;2022-11-06T03:20:33;96479.38;;;7.55;100.00
74346;BME280;62776;50.518;6.732;2022-11-06T03:26:23;96493.22;;;7.63;100.00
74346;BME280;62776;50.518;6.732;2022-11-06T03:32:29;96487.16;;;7.60;100.00
74346;BME280;62776;50.518;6.732;2022-11-06T03:35:34;96500.09;;;7.49;100.00
74346;BME280;62776;50.518;6.732;2022-11-06T03:38:29;96495.75;;;7.53;100.00
74346;BME280;62776;50.518;6.732;2022-11-06T03:41:27;96492.34;;;7.49;100.00
74346;BME280;62776;50.518;6.732;2022-11-06T03:44:18;96494.06;;;7.49;100.00
74346;BME280;62776;50.518;6.732;2022-11-06T03:47:31;96476.81;;;7.45;100.00
74346;BME280;62776;50.518;6.732;2022-11-06T03:50:29;96491.47;;;7.44;100.00
74346;BME280;62776;50.518;6.732;2022-11-06T03:53:24;96495.78;;;7.44;100.00
74346;BME280;62776;50.518;6.732;2022-11-06T03:56:33;96495.78;;;7.41;100.00
74346;BME280;62776;50.518;6.732;2022-11-06T03:59:21;96494.91;;;7.55;100.00
74346;BME280;62776;50.518;6.732;2022-11-06T04:02:12;96494.06;;;7.58;100.00
74346;BME280;62776;50.518;6.732;2022-11-06T04:05:03;96482.84;;;7.54;100.00
74346;BME280;62776;50.518;6.732;2022-11-06T04:07:54;96486.28;;;7.56;100.00
74346;BME280;62776;50.518;6.732;2022-11-06T04:11:02;96484.56;;;7.58;100.00
74346;BME280;62776;50.518;6.732;2022-11-06T04:14:09;96478.53;;;7.64;100.00
74346;BME280;62776;50.518;6.732;2022-11-06T04:17:00;96478.53;;;7.70;100.00
74346;BME280;62776;50.518;6.732;2022-11-06T04:19:53;96490.59;;;7.72;100.00
74346;BME280;62776;50.518;6.732;2022-11-06T04:25:49;96491.47;;;7.68;100.00
74346;BME280;62776;50.518;6.732;2022-11-06T04:29:08;96486.28;;;7.76;100.00
74346;BME280;62776;50.518;6.732;2022-11-06T04:32:15;96480.25;;;7.82;100.00
74346;BME280;62776;50.518;6.732;2022-11-06T04:38:29;96464.75;;;7.74;100.00
74346;BME280;62776;50.518;6.732;2022-11-06T04:44:39;96455.22;;;7.84;100.00
74346;BME280;62776;50.518;6.732;2022-11-06T04:47:28;96450.91;;;7.87;100.00
74346;BME280;62776;50.518;6.732;2022-11-06T04:50:15;96447.47;;;7.87;100.00
74346;BME280;62776;50.518;6.732;2022-11-06T04:53:02;96439.72;;;7.84;100.00
74346;BME280;62776;50.518;6.732;2022-11-06T04:55:52;96422.47;;;7.80;100.00
74346;BME280;62776;50.518;6.732;2022-11-06T04:58:39;96419.00;;;7.81;100.00
74346;BME280;62776;50.518;6.732;2022-11-06T05:01:25;96421.59;;;7.81;100.00
74346;BME280;62776;50.518;6.732;2022-11-06T05:04:11;96415.56;;;7.79;100.00
74346;BME280;62776;50.518;6.732;2022-11-06T05:06:57;96409.53;;;7.80;100.00
74346;BME280;62776;50.518;6.732;2022-11-06T05:09:44;96403.50;;;7.78;100.00
74346;BME280;62776;50.518;6.732;2022-11-06T05:12:30;96385.41;;;7.76;100.00
74346;BME280;62776;50.518;6.732;2022-11-06T05:15:16;96374.19;;;7.72;100.00
74346;BME280;62776;50.518;6.732;2022-11-06T05:18:03;96374.19;;;7.69;100.00
74346;BME280;62776;50.518;6.732;2022-11-06T05:20:49;96380.22;;;7.67;100.00
74346;BME280;62776;50.518;6.732;2022-11-06T05:23:55;96364.72;;;7.64;100.00
74346;BME280;62776;50.518;6.732;2022-11-06T05:26:42;96374.22;;;7.63;100.00
74346;BME280;62776;50.518;6.732;2022-11-06T05:29:28;96370.75;;;7.61;100.00
74346;BME280;62776;50.518;6.732;2022-11-06T05:32:14;96362.16;;;7.58;100.00
74346;BME280;62776;50.518;6.732;2022-11-06T05:35:00;96356.13;;;7.57;100.00
74346;BME280;62776;50.518;6.732;2022-11-06T05:37:46;96345.78;;;7.53;100.00
74346;BME280;62776;50.518;6.732;2022-11-06T05:40:32;96341.47;;;7.50;100.00
74346;BME280;62776;50.518;6.732;2022-11-06T05:43:18;96333.72;;;7.47;100.00
74346;BME280;62776;50.518;6.732;2022-11-06T05:46:04;96343.22;;;7.45;100.00
74346;BME280;62776;50.518;6.732;2022-11-06T05:48:50;96338.91;;;7.44;100.00
74346;BME280;62776;50.518;6.732;2022-11-06T05:51:37;96342.34;;;7.46;100.00
74346;BME280;62776;50.518;6.732;2022-11-06T05:54:23;96333.75;;;7.44;100.00
74346;BME280;62776;50.518;6.732;2022-11-06T05:57:09;96326.00;;;7.41;100.00
74346;BME280;62776;50.518;6.732;2022-11-06T05:59:55;96320.81;;;7.40;100.00
74346;BME280;62776;50.518;6.732;2022-11-06T06:02:41;96307.91;;;7.38;100.00
74346;BME280;62776;50.518;6.732;2022-11-06T06:05:27;96305.31;;;7.38;100.00
74346;BME280;62776;50.518;6.732;2022-11-06T06:08:14;96291.50;;;7.36;100.00
74346;BME280;62776;50.518;6.732;2022-11-06T06:11:05;96295.81;;;7.31;100.00
74346;BME280;62776;50.518;6.732;2022-11-06T06:13:52;96296.72;;;7.33;100.00
74346;BME280;62776;50.518;6.732;2022-11-06T06:16:38;96307.06;;;7.33;100.00
74346;BME280;62776;50.518;6.732;2022-11-06T06:19:24;96324.25;;;7.34;100.00
74346;BME280;62776;50.518;6.732;2022-11-06T06:22:10;96326.88;;;7.39;100.00
74346;BME280;62776;50.518;6.732;2022-11-06T06:24:56;96306.16;;;7.40;100.00
74346;BME280;62776;50.518;6.732;2022-11-06T06:27:42;96312.19;;;7.39;100.00
74346;BME280;62776;50.518;6.732;2022-11-06T06:30:28;96304.44;;;7.38;100.00
74346;BME280;62776;50.518;6.732;2022-11-06T06:33:14;96316.50;;;7.43;100.00
74346;BME280;62776;50.518;6.732;2022-11-06T06:36:04;96316.53;;;7.39;100.00
74346;BME280;62776;50.518;6.732;2022-11-06T06:38:51;96328.56;;;7.44;100.00
74346;BME280;62776;50.518;6.732;2022-11-06T06:41:37;96323.38;;;7.43;100.00
74346;BME280;62776;50.518;6.732;2022-11-06T06:44:23;96324.25;;;7.42;100.00
74346;BME280;62776;50.518;6.732;2022-11-06T06:47:09;96328.56;;;7.41;100.00
74346;BME280;62776;50.518;6.732;2022-11-06T06:49:55;96313.03;;;7.43;100.00
74346;BME280;62776;50.518;6.732;2022-11-06T06:52:41;96313.91;;;7.40;100.00
74346;BME280;62776;50.518;6.732;2022-11-06T06:55:27;96316.53;;;7.39;100.00
74346;BME280;62776;50.518;6.732;2022-11-06T06:58:14;96317.34;;;7.36;100.00
74346;BME280;62776;50.518;6.732;2022-11-06T07:01:04;96319.09;;;7.34;100.00
74346;BME280;62776;50.518;6.732;2022-11-06T07:03:51;96316.47;;;7.42;100.00
74346;BME280;62776;50.518;6.732;2022-11-06T07:06:37;96336.34;;;7.44;100.00
74346;BME280;62776;50.518;6.732;2022-11-06T07:09:23;96333.72;;;7.52;100.00
74346;BME280;62776;50.518;6.732;2022-11-06T07:12:09;96332.84;;;7.54;100.00
74346;BME280;62776;50.518;6.732;2022-11-06T07:14:56;96324.22;;;7.58;100.00
74346;BME280;62776;50.518;6.732;2022-11-06T07:17:42;96315.59;;;7.62;100.00
74346;BME280;62776;50.518;6.732;2022-11-06T07:20:29;96313.00;;;7.62;100.00
74346;BME280;62776;50.518;6.732;2022-11-06T07:23:15;96304.38;;;7.62;100.00
74346;BME280;62776;50.518;6.732;2022-11-06T07:26:02;96306.09;;;7.58;100.00
74346;BME280;62776;50.518;6.732;2022-11-06T07:28:48;96305.22;;;7.61;100.00
74346;BME280;62776;50.518;6.732;2022-11-06T07:31:34;96314.75;;;7.60;100.00
74346;BME280;62776;50.518;6.732;2022-11-06T07:34:20;96312.16;;;7.60;100.00
74346;BME280;62776;50.518;6.732;2022-11-06T07:37:07;96312.16;;;7.60;100.00
74346;BME280;62776;50.518;6.732;2022-11-06T07:39:53;96322.50;;;7.60;100.00
74346;BME280;62776;50.518;6.732;2022-11-06T07:42:39;96316.47;;;7.57;100.00
74346;BME280;62776;50.518;6.732;2022-11-06T07:45:25;96325.09;;;7.54;100.00
74346;BME280;62776;50.518;6.732;2022-11-06T07:48:11;96319.06;;;7.51;100.00
74346;BME280;62776;50.518;6.732;2022-11-06T07:50:57;96315.63;;;7.46;100.00
74346;BME280;62776;50.518;6.732;2022-11-06T07:53:43;96319.94;;;7.44;100.00
74346;BME280;62776;50.518;6.732;2022-11-06T07:56:30;96310.47;;;7.44;100.00
74346;BME280;62776;50.518;6.732;2022-11-06T07:59:16;96305.31;;;7.44;100.00
74346;BME280;62776;50.518;6.732;2022-11-06T08:02:02;96294.94;;;7.46;100.00
74346;BME280;62776;50.518;6.732;2022-11-06T08:04:48;96298.38;;;7.49;100.00
74346;BME280;62776;50.518;6.732;2022-11-06T08:07:34;96291.47;;;7.50;100.00
74346;BME280;62776;50.518;6.732;2022-11-06T08:10:20;96293.22;;;7.52;100.00
74346;BME280;62776;50.518;6.732;2022-11-06T08:13:06;96297.50;;;7.53;100.00
74346;BME280;62776;50.518;6.732;2022-11-06T08:15:52;96286.28;;;7.57;100.00
74346;BME280;62776;50.518;6.732;2022-11-06T08:18:39;96293.16;;;7.61;100.00
74346;BME280;62776;50.518;6.732;2022-11-06T08:21:25;96289.69;;;7.64;100.00
74346;BME280;62776;50.518;6.732;2022-11-06T08:24:11;96285.38;;;7.67;100.00
74346;BME280;62776;50.518;6.732;2022-11-06T08:26:57;96300.06;;;7.71;100.00
74346;BME280;62776;50.518;6.732;2022-11-06T08:29:44;96293.13;;;7.77;100.00
74346;BME280;62776;50.518;6.732;2022-11-06T08:32:30;96288.81;;;7.76;100.00
74346;BME280;62776;50.518;6.732;2022-11-06T08:35:16;96293.94;;;7.80;100.00
74346;BME280;62776;50.518;6.732;2022-11-06T08:38:03;96295.69;;;7.83;100.00
74346;BME280;62776;50.518;6.732;2022-11-06T08:40:49;96292.22;;;7.87;100.00
74346;BME280;62776;50.518;6.732;2022-11-06T08:43:36;96281.84;;;7.93;100.00
74346;BME280;62776;50.518;6.732;2022-11-06T08:46:22;96274.06;;;7.99;100.00
74346;BME280;62776;50.518;6.732;2022-11-06T08:49:09;96280.91;;;8.03;100.00
74346;BME280;62776;50.518;6.732;2022-11-06T08:51:55;96269.69;;;8.05;100.00
74346;BME280;62776;50.518;6.732;2022-11-06T08:54:41;96270.53;;;8.09;100.00
74346;BME280;62776;50.518;6.732;2022-11-06T08:57:27;96265.38;;;8.09;100.00
74346;BME280;62776;50.518;6.732;2022-11-06T09:00:14;96264.50;;;8.10;100.00
74346;BME280;62776;50.518;6.732;2022-11-06T09:03:12;96263.63;;;8.08;100.00
74346;BME280;62776;50.518;6.732;2022-11-06T09:05:59;96266.22;;;8.11;100.00
74346;BME280;62776;50.518;6.732;2022-11-06T09:08:45;96259.31;;;8.11;100.00
74346;BME280;62776;50.518;6.732;2022-11-06T09:11:31;96258.44;;;8.14;100.00
74346;BME280;62776;50.518;6.732;2022-11-06T09:14:17;96242.91;;;8.15;100.00
74346;BME280;62776;50.518;6.732;2022-11-06T09:17:04;96236.00;;;8.17;100.00
74346;BME280;62776;50.518;6.732;2022-11-06T09:19:50;96235.97;;;8.19;100.00
74346;BME280;62776;50.518;6.732;2022-11-06T09:22:37;96237.66;;;8.21;100.00
74346;BME280;62776;50.518;6.732;2022-11-06T09:25:23;96223.84;;;8.27;100.00
74346;BME280;62776;50.518;6.732;2022-11-06T09:28:09;96222.06;;;8.35;100.00
74346;BME280;62776;50.518;6.732;2022-11-06T09:30:55;96216.84;;;8.41;100.00
74346;BME280;62776;50.518;6.732;2022-11-06T09:33:41;96208.22;;;8.45;100.00
74346;BME280;62776;50.518;6.732;2022-11-06T09:36:27;96202.91;;;8.57;100.00
74346;BME280;62776;50.518;6.732;2022-11-06T09:39:13;96195.13;;;8.62;100.00
74346;BME280;62776;50.518;6.732;2022-11-06T09:42:11;96189.84;;;8.72;100.00
74346;BME280;62776;50.518;6.732;2022-11-06T09:54:21;96212.84;;;9.06;100.00
74346;BME280;62776;50.518;6.732;2022-11-06T09:58:14;96216.28;;;9.08;100.00
74346;BME280;62776;50.518;6.732;2022-11-06T10:00:28;96217.00;;;9.20;100.00
74346;BME280;62776;50.518;6.732;2022-11-06T10:06:27;96202.09;;;9.42;100.00
74346;BME280;62776;50.518;6.732;2022-11-06T10:09:14;96193.31;;;9.52;100.00
74346;BME280;62776;50.518;6.732;2022-11-06T10:12:41;96187.38;;;9.39;98.09
74346;BME280;62776;50.518;6.732;2022-11-06T10:15:50;96176.09;;;9.45;97.27
74346;BME280;62776;50.518;6.732;2022-11-06T10:19:09;96167.44;;;9.46;96.68
74346;BME280;62776;50.518;6.732;2022-11-06T10:22:10;96171.63;;;9.58;96.70
74346;BME280;62776;50.518;6.732;2022-11-06T10:25:20;96178.50;;;9.60;97.41
74346;BME280;62776;50.518;6.732;2022-11-06T10:34:03;96161.91;;;9.73;97.63
74346;BME280;62776;50.518;6.732;2022-11-06T10:37:17;96156.78;;;9.69;97.02
74346;BME280;62776;50.518;6.732;2022-11-06T10:40:08;96140.06;;;9.88;97.09
74346;BME280;62776;50.518;6.732;2022-11-06T10:46:19;96124.50;;;9.88;94.28
74346;BME280;62776;50.518;6.732;2022-11-06T10:58:32;96108.72;;;10.00;89.28
74346;BME280;62776;50.518;6.732;2022-11-06T11:01:19;96094.91;;;9.98;88.82
74346;BME280;62776;50.518;6.732;2022-11-06T11:04:05;96093.97;;;10.03;88.75
74346;BME280;62776;50.518;6.732;2022-11-06T11:06:51;96090.53;;;10.01;87.69
74346;BME280;62776;50.518;6.732;2022-11-06T11:09:37;96093.13;;;10.00;87.57
74346;BME280;62776;50.518;6.732;2022-11-06T11:12:26;96085.31;;;10.04;85.87
74346;BME280;62776;50.518;6.732;2022-11-06T11:15:16;96073.09;;;10.09;85.25
74346;BME280;62776;50.518;6.732;2022-11-06T11:24:10;96073.00;;;10.17;82.64
74346;BME280;62776;50.518;6.732;2022-11-06T11:29:46;96066.50;;;10.42;82.21
74346;BME280;62776;50.518;6.732;2022-11-06T11:32:35;96065.50;;;10.49;80.45
74346;BME280;62776;50.518;6.732;2022-11-06T11:35:27;96043.84;;;10.50;79.99
74346;BME280;62776;50.518;6.732;2022-11-06T11:38:15;96028.03;;;10.61;80.79
74346;BME280;62776;50.518;6.732;2022-11-06T11:44:06;96032.59;;;10.50;79.21
74346;BME280;62776;50.518;6.732;2022-11-06T11:46:58;96029.81;;;10.59;77.82
74346;BME280;62776;50.518;6.732;2022-11-06T11:49:44;96017.75;;;10.55;78.01
74346;BME280;62776;50.518;6.732;2022-11-06T11:52:30;95996.16;;;10.53;77.70
74346;BME280;62776;50.518;6.732;2022-11-06T11:55:21;95986.72;;;10.47;78.99
74346;BME280;62776;50.518;6.732;2022-11-06T11:58:22;95986.72;;;10.47;78.93
74346;BME280;62776;50.518;6.732;2022-11-06T12:01:10;95979.50;;;10.63;79.89
74346;BME280;62776;50.518;6.732;2022-11-06T12:03:56;95974.03;;;10.77;80.22
74346;BME280;62776;50.518;6.732;2022-11-06T12:06:55;95981.03;;;10.73;79.33
74346;BME280;62776;50.518;6.732;2022-11-06T12:09:43;95959.97;;;10.85;79.86
74346;BME280;62776;50.518;6.732;2022-11-06T12:12:32;95952.97;;;10.90;78.35
74346;BME280;62776;50.518;6.732;2022-11-06T12:15:32;95959.91;;;10.88;78.57
74346;BME280;62776;50.518;6.732;2022-11-06T12:18:32;95946.34;;;10.74;76.99
74346;BME280;62776;50.518;6.732;2022-11-06T12:21:32;95948.47;;;10.55;75.86
74346;BME280;62776;50.518;6.732;2022-11-06T12:24:42;95957.22;;;10.50;76.79
74346;BME280;62776;50.518;6.732;2022-11-06T12:27:40;95960.78;;;10.46;77.88
74346;BME280;62776;50.518;6.732;2022-11-06T12:30:29;95952.88;;;10.52;77.39
74346;BME280;62776;50.518;6.732;2022-11-06T12:33:20;95947.69;;;10.52;77.82
74346;BME280;62776;50.518;6.732;2022-11-06T12:36:07;95946.78;;;10.54;77.78
74346;BME280;62776;50.518;6.732;2022-11-06T12:39:03;95930.38;;;10.51;77.38
74346;BME280;62776;50.518;6.732;2022-11-06T12:41:54;95921.78;;;10.49;76.82
74346;BME280;62776;50.518;6.732;2022-11-06T12:44:41;95906.94;;;10.52;77.94
74346;BME280;62776;50.518;6.732;2022-11-06T12:47:48;95904.69;;;10.37;77.01
74346;BME280;62776;50.518;6.732;2022-11-06T12:50:49;95898.56;;;10.40;77.84
74346;BME280;62776;50.518;6.732;2022-11-06T12:54:10;95911.00;;;10.24;78.83
74346;BME280;62776;50.518;6.732;2022-11-06T13:00:17;95903.00;;;10.35;79.65
74346;BME280;62776;50.518;6.732;2022-11-06T13:03:30;95899.59;;;10.31;80.57
74346;BME280;62776;50.518;6.732;2022-11-06T13:09:56;95911.66;;;10.34;80.43
74346;BME280;62776;50.518;6.732;2022-11-06T13:19:04;95893.59;;;10.29;80.85
74346;BME280;62776;50.518;6.732;2022-11-06T13:22:35;95890.28;;;10.20;80.23
74346;BME280;62776;50.518;6.732;2022-11-06T13:28:53;95883.38;;;10.20;81.52
74346;BME280;62776;50.518;6.732;2022-11-06T13:31:55;95875.63;;;10.19;81.35
74346;BME280;62776;50.518;6.732;2022-11-06T13:34:43;95873.03;;;10.19;81.48
74346;BME280;62776;50.518;6.732;2022-11-06T13:37:40;95874.88;;;10.11;82.04
74346;BME280;62776;50.518;6.732;2022-11-06T13:40:31;95859.25;;;10.14;82.27
74346;BME280;62776;50.518;6.732;2022-11-06T13:43:44;95846.50;;;10.01;81.79
74346;BME280;62776;50.518;6.732;2022-11-06T13:50:01;95829.81;;;10.15;82.18
74346;BME280;62776;50.518;6.732;2022-11-06T13:53:06;95830.03;;;10.02;82.81
74346;BME280;62776;50.518;6.732;2022-11-06T13:59:13;95842.44;;;9.88;82.52
74346;BME280;62776;50.518;6.732;2022-11-06T14:02:26;95832.88;;;9.89;82.50
74346;BME280;62776;50.518;6.732;2022-11-06T14:11:41;95819.06;;;9.87;78.67
74346;BME280;62776;50.518;6.732;2022-11-06T14:14:30;95834.75;;;9.82;79.32
74346;BME280;62776;50.518;6.732;2022-11-06T14:23:44;95863.78;;;9.55;78.85
74346;BME280;62776;50.518;6.732;2022-11-06T14:26:41;95859.28;;;9.66;80.19
74346;BME280;62776;50.518;6.732;2022-11-06T14:38:19;95858.56;;;9.58;80.43
74346;BME280;62776;50.518;6.732;2022-11-06T14:47:07;95850.72;;;9.61;81.57
74346;BME280;62776;50.518;6.732;2022-11-06T14:49:56;95849.88;;;9.61;81.68
74346;BME280;62776;50.518;6.732;2022-11-06T14:52:49;95862.84;;;9.59;82.54
74346;BME280;62776;50.518;6.732;2022-11-06T14:55:59;95851.06;;;9.40;81.99
74346;BME280;62776;50.518;6.732;2022-11-06T14:58:55;95862.16;;;9.48;80.59
74346;BME280;62776;50.518;6.732;2022-11-06T15:01:57;95854.63;;;9.36;80.50
74346;BME280;62776;50.518;6.732;2022-11-06T15:04:58;95864.91;;;9.40;81.59
74346;BME280;62776;50.518;6.732;2022-11-06T15:13:29;95858.84;;;9.40;82.35
74346;BME280;62776;50.518;6.732;2022-11-06T15:16:15;95854.63;;;9.36;82.68
74346;BME280;62776;50.518;6.732;2022-11-06T15:19:04;95849.50;;;9.31;83.57
74346;BME280;62776;50.518;6.732;2022-11-06T15:22:14;95835.69;;;9.29;82.77
74346;BME280;62776;50.518;6.732;2022-11-06T15:28:11;95859.25;;;9.16;83.54
74346;BME280;62776;50.518;6.732;2022-11-06T15:31:03;95860.09;;;9.18;84.91
74346;BME280;62776;50.518;6.732;2022-11-06T15:33:54;95861.91;;;9.13;84.91
74346;BME280;62776;50.518;6.732;2022-11-06T15:36:46;95855.09;;;9.07;85.60
74346;BME280;62776;50.518;6.732;2022-11-06T15:42:35;95840.53;;;9.00;89.17
74346;BME280;62776;50.518;6.732;2022-11-06T15:45:25;95838.91;;;8.92;90.81
74346;BME280;62776;50.518;6.732;2022-11-06T15:48:21;95842.59;;;8.78;90.82
74346;BME280;62776;50.518;6.732;2022-11-06T15:51:25;95833.16;;;8.71;91.01
74346;BME280;62776;50.518;6.732;2022-11-06T15:54:13;95833.03;;;8.79;92.70
74346;BME280;62776;50.518;6.732;2022-11-06T15:57:04;95822.81;;;8.71;92.98
74346;BME280;62776;50.518;6.732;2022-11-06T16:02:59;95809.13;;;8.63;93.21
74346;BME280;62776;50.518;6.732;2022-11-06T16:05:46;95804.72;;;8.68;93.32
74346;BME280;62776;50.518;6.732;2022-11-06T16:08:33;95801.25;;;8.69;93.46
74346;BME280;62776;50.518;6.732;2022-11-06T16:11:20;95790.06;;;8.67;93.58
74346;BME280;62776;50.518;6.732;2022-11-06T16:14:07;95785.78;;;8.65;93.54
74346;BME280;62776;50.518;6.732;2022-11-06T16:16:56;95780.63;;;8.63;93.79
74346;BME280;62776;50.518;6.732;2022-11-06T16:19:55;95794.47;;;8.61;93.62
74346;BME280;62776;50.518;6.732;2022-11-06T16:22:43;95768.53;;;8.64;93.62
74346;BME280;62776;50.518;6.732;2022-11-06T16:25:29;95761.59;;;8.66;93.48
74346;BME280;62776;50.518;6.732;2022-11-06T16:28:18;95769.41;;;8.63;92.42
74346;BME280;62776;50.518;6.732;2022-11-06T16:31:18;95742.72;;;8.59;93.09
74346;BME280;62776;50.518;6.732;2022-11-06T16:34:17;95740.06;;;8.62;93.00
74346;BME280;62776;50.518;6.732;2022-11-06T16:37:11;95763.44;;;8.59;91.57
74346;BME280;62776;50.518;6.732;2022-11-06T16:43:28;95816.06;;;8.61;91.86
74346;BME280;62776;50.518;6.732;2022-11-06T16:46:14;95803.94;;;8.65;92.26
74346;BME280;62776;50.518;6.732;2022-11-06T16:49:33;95792.09;;;8.49;91.05
74346;BME280;62776;50.518;6.732;2022-11-06T16:52:29;95785.06;;;8.55;91.52
74346;BME280;62776;50.518;6.732;2022-11-06T16:55:20;95784.97;;;8.61;91.00
74346;BME280;62776;50.518;6.732;2022-11-06T16:58:14;95782.50;;;8.54;90.36
74346;BME280;62776;50.518;6.732;2022-11-06T17:01:02;95784.69;;;8.20;91.15
74346;BME280;62776;50.518;6.732;2022-11-06T17:03:51;95782.56;;;8.51;90.58
74346;BME280;62776;50.518;6.732;2022-11-06T17:06:44;95793.81;;;8.48;89.96
74346;BME280;62776;50.518;6.732;2022-11-06T17:09:32;95793.78;;;8.51;90.39
74346;BME280;62776;50.518;6.732;2022-11-06T17:12:19;95779.88;;;8.55;90.69
74346;BME280;62776;50.518;6.732;2022-11-06T17:15:05;95789.41;;;8.53;91.10
74346;BME280;62776;50.518;6.732;2022-11-06T17:17:51;95781.66;;;8.53;90.22
74346;BME280;62776;50.518;6.732;2022-11-06T17:20:37;95792.06;;;8.50;90.65
74346;BME280;62776;50.518;6.732;2022-11-06T17:23:26;95796.44;;;8.45;91.04
74346;BME280;62776;50.518;6.732;2022-11-06T17:26:59;95779.50;;;8.20;91.34
74346;BME280;62776;50.518;6.732;2022-11-06T17:29:45;95779.34;;;8.34;92.62
74346;BME280;62776;50.518;6.732;2022-11-06T17:32:31;95771.66;;;8.29;92.81
74346;BME280;62776;50.518;6.732;2022-11-06T17:35:17;95763.91;;;8.24;93.11
74346;BME280;62776;50.518;6.732;2022-11-06T17:38:03;95763.09;;;8.21;93.69